Latest Weather Observations for Cerberus

IDV60901

Issued at 4:21 am EDT Saturday 28 March 2015 (issued every 10 minutes, with the page automatically refreshed every 10 minutes)

About weather observations | Map of Melbourne area stations | Latest observations for Melbourne area | Other Formats
Station Details ID: 086361 Name: CERBERUS Lat: -38.36 Lon: 145.18 Height: 12.69 m
Data from the previous 72 hours. | See also: Recent months at Cerberus
Date/Time
EDT
Tmp

°C
App
Tmp
°C
Dew
Point
°C
Rel
Hum
%
Delta-T

°C
Wind Press
QNH
hPa
Press
MSL
hPa
Rain
since
9 am
mm
Dir
 
Spd
km/h
Gust
km/h
Spd
kts
Gust
kts
28/04:00am 11.5 9.8 8.4 81 1.5 W 7 9 4 5 1023.8 1023.7 0.8
28/03:30am 11.8 10.3 8.5 80 1.6 W 6 9 3 5 1023.8 1023.7 0.8
28/03:00am 12.2 10.5 8.3 77 1.9 W 7 9 4 5 1024.0 1023.9 0.8
28/02:30am 12.9 11.3 8.8 76 2.1 W 7 11 4 6 1024.0 1023.9 0.8
28/02:00am 13.2 11.3 9.1 76 2.1 W 9 11 5 6 1024.1 1024.0 0.8
28/01:30am 13.2 11.8 8.7 74 2.3 WSW 6 9 3 5 1024.1 1024.0 0.8
28/01:00am 13.7 12.2 9.2 74 2.3 WSW 7 11 4 6 1024.2 1024.1 0.8
28/12:30am 14.1 11.7 9.9 76 2.2 WSW 13 19 7 10 1024.1 1024.0 0.8
28/12:00am 13.4 12.5 10.8 84 1.4 W 6 11 3 6 1024.2 1024.1 0.8
 
Date/Time
EDT
Tmp

°C
App
Tmp
°C
Dew
Point
°C
Rel
Hum
%
Delta-T

°C
Wind Press
QNH
hPa
Press
MSL
hPa
Rain
since
9 am
mm
Dir
 
Spd
km/h
Gust
km/h
Spd
kts
Gust
kts
27/11:30pm 13.3 12.2 10.8 85 1.3 WNW 7 15 4 8 1024.5 1024.4 0.8
27/11:00pm 13.3 10.5 10.1 81 1.6 SW 15 22 8 12 1024.6 1024.5 0.6
27/10:30pm 13.4 12.0 10.8 84 1.4 W 9 15 5 8 1024.5 1024.4 0.6
27/10:00pm 13.4 11.9 10.6 83 1.5 WNW 9 13 5 7 1024.4 1024.3 0.6
27/09:30pm 14.0 11.6 10.0 77 2.1 W 13 26 7 14 1024.5 1024.4 0.6
27/09:00pm 13.9 11.9 10.1 78 2.0 WSW 11 19 6 10 1024.3 1024.2 0.6
27/08:30pm 13.7 11.9 9.6 76 2.1 W 9 11 5 6 1024.0 1023.9 0.6
27/08:00pm 13.9 12.1 9.5 75 2.2 WSW 9 15 5 8 1023.8 1023.7 0.6
27/07:30pm 14.2 10.5 9.4 73 2.5 WSW 19 30 10 16 1023.5 1023.4 0.6
27/07:00pm 13.9 12.3 10.1 78 2.0 W 9 13 5 7 1023.3 1023.2 0.6
27/06:30pm 13.7 10.1 9.7 77 2.1 SW 19 33 10 18 1023.1 1023.0 0.6
27/06:00pm 15.4 12.0 9.3 67 3.1 WSW 17 30 9 16 1022.9 1022.8 0.6
27/05:30pm 15.4 11.4 8.9 65 3.3 WSW 20 35 11 19 1022.6 1022.5 0.6
27/05:00pm 15.3 11.8 10.1 71 2.7 WSW 19 32 10 17 1022.5 1022.4 0.6
27/04:30pm 15.3 10.4 9.9 70 2.8 WSW 26 37 14 20 1022.4 1022.3 0.6
27/04:00pm 15.7 10.8 9.8 68 3.1 WSW 26 41 14 22 1022.2 1022.1 0.6
27/03:30pm 15.9 11.3 9.6 66 3.3 WSW 24 35 13 19 1022.3 1022.2 0.6
27/03:00pm 15.7 11.2 10.0 69 3.0 WSW 24 35 13 19 1022.5 1022.4 0.6
27/02:30pm 14.0 9.7 10.6 80 1.8 WSW 24 44 13 24 1022.7 1022.6 0.6
27/02:00pm 15.2 11.0 9.6 69 2.9 WSW 22 33 12 18 1022.6 1022.5 0.4
27/01:30pm 14.7 10.0 9.3 70 2.8 WSW 24 33 13 18 1022.8 1022.7 0.4
27/01:00pm 15.0 11.4 9.8 71 2.7 WSW 19 32 10 17 1023.0 1022.9 0.4
27/12:30pm 14.7 9.2 9.3 70 2.8 WSW 28 50 15 27 1022.8 1022.7 0.4
27/12:29pm 14.7 9.2 9.1 69 2.9 WSW 28 50 15 27 1022.8 1022.7 0.4
27/12:00pm 14.9 9.7 10.1 73 2.5 WSW 28 43 15 23 1022.7 1022.6 0.4
27/11:30am 14.3 9.9 10.3 77 2.1 WSW 24 39 13 21 1022.6 1022.5 0.4
27/11:00am 13.6 9.3 10.8 83 1.5 WSW 24 35 13 19 1022.5 1022.4 0.4
27/10:30am 13.8 10.4 11.1 84 1.4 WSW 20 33 11 18 1022.0 1021.9 0.4
27/10:00am 13.3 9.7 10.7 84 1.4 W 20 28 11 15 1021.8 1021.7 0.0
27/09:30am 13.2 8.7 10.0 81 1.6 WSW 24 46 13 25 1021.2 1021.1 0.0
27/09:00am 13.4 9.4 10.4 82 1.6 WSW 22 33 12 18 1020.8 1020.7 15.2
27/08:30am 13.1 9.6 10.1 82 1.5 W 19 30 10 16 1020.4 1020.3 15.0
27/08:00am 12.7 9.0 10.2 85 1.3 W 20 32 11 17 1020.0 1019.9 15.0
27/07:30am 13.1 9.0 10.1 82 1.5 WSW 22 37 12 20 1019.8 1019.7 14.8
27/07:00am 12.7 9.2 10.1 84 1.3 W 19 32 10 17 1019.1 1019.0 14.8
27/06:30am 12.9 10.1 10.1 83 1.4 W 15 30 8 16 1018.8 1018.7 14.4
27/06:00am 12.4 8.8 10.0 85 1.2 W 19 30 10 16 1018.5 1018.4 14.4
27/05:30am 12.4 8.3 10.0 85 1.2 W 22 35 12 19 1018.4 1018.3 13.4
27/05:00am 13.1 10.0 10.3 83 1.4 W 17 30 9 16 1018.0 1017.9 12.8
27/04:30am 12.4 9.5 9.8 84 1.3 W 15 26 8 14 1017.9 1017.8 12.4
27/04:00am 13.2 9.9 9.5 78 1.9 W 17 26 9 14 1017.7 1017.6 11.8
27/03:30am 13.0 9.4 9.8 81 1.6 W 19 32 10 17 1017.7 1017.6 11.8
27/03:00am 12.7 9.9 10.1 84 1.3 W 15 26 8 14 1017.6 1017.5 11.8
27/02:30am 12.7 9.6 10.4 86 1.2 W 17 26 9 14 1017.5 1017.4 11.8
27/02:00am 12.5 9.5 10.7 89 0.9 W 17 26 9 14 1017.3 1017.2 11.6
27/01:30am 12.6 8.7 10.7 88 1.0 WNW 22 37 12 20 1017.0 1016.9 10.2
27/01:00am 12.5 9.5 10.7 89 0.9 WNW 17 26 9 14 1016.7 1016.6 9.6
27/12:30am 12.9 9.1 11.0 88 1.0 WNW 22 32 12 17 1016.8 1016.7 9.0
27/12:00am 12.7 9.4 10.8 88 1.0 WNW 19 30 10 16 1017.1 1017.0 8.8
 
Date/Time
EDT
Tmp

°C
App
Tmp
°C
Dew
Point
°C
Rel
Hum
%
Delta-T

°C
Wind Press
QNH
hPa
Press
MSL
hPa
Rain
since
9 am
mm
Dir
 
Spd
km/h
Gust
km/h
Spd
kts
Gust
kts
26/11:30pm 12.6 9.0 10.7 88 1.0 WNW 20 35 11 19 1016.9 1016.8 8.0
26/11:00pm 12.6 9.2 10.7 88 1.0 WNW 19 28 10 15 1016.8 1016.7 7.4
26/10:30pm 12.6 9.2 10.7 88 1.0 WNW 19 30 10 16 1016.5 1016.4 6.8
26/10:00pm 12.8 8.8 10.5 86 1.2 WNW 22 39 12 21 1016.3 1016.2 4.4
26/09:30pm 13.4 9.3 10.2 81 1.7 WNW 22 43 12 23 1015.9 1015.8 3.2
26/09:00pm 13.4 8.1 9.8 79 1.8 WNW 28 48 15 26 1015.7 1015.6 3.2
26/08:34pm 13.5 8.2 9.9 79 1.9 NW 28 50 15 27 1015.2 1015.1 3.2
26/08:30pm 13.4 8.1 10.0 80 1.8 NW 28 44 15 24 1015.1 1015.0 3.2
26/08:00pm 13.2 8.0 10.4 83 1.5 WNW 28 46 15 25 1014.9 1014.8 3.2
26/07:38pm 13.4 7.7 9.8 79 1.8 NW 30 50 16 27 1014.5 1014.4 3.0
26/07:30pm 13.5 7.8 9.9 79 1.9 WNW 30 46 16 25 1014.5 1014.4 3.0
26/07:00pm 13.6 7.5 9.6 77 2.0 NW 32 59 17 32 1014.2 1014.1 3.0
26/06:30pm 13.1 6.9 9.4 78 1.9 NW 32 52 17 28 1014.1 1014.0 3.0
26/06:02pm 13.1 7.5 8.6 74 2.2 NW 28 56 15 30 1014.0 1013.9 2.8
26/06:00pm 13.1 8.3 8.8 75 2.2 NW 24 54 13 29 1014.1 1014.0 2.8
26/05:30pm 11.7 7.8 8.6 81 1.5 NNW 19 37 10 20 1014.1 1014.0 2.2
26/05:04pm 11.4 5.5 7.5 77 1.9 NW 28 46 15 25 1015.1 1015.0 1.6
26/05:00pm 11.6 5.2 7.1 74 2.2 NW 30 46 16 25 1015.1 1015.0 1.2
26/04:30pm 13.7 6.1 5.6 58 3.8 NW 35 63 19 34 1014.6 1014.5 0.0
26/04:00pm 16.0 9.3 3.8 44 5.6 NW 28 50 15 27 1014.5 1014.4 0.0
26/03:52pm 15.4 8.6 2.9 43 5.6 NW 28 56 15 30 1014.4 1014.3 0.0
26/03:30pm 15.8 8.2 2.6 41 5.9 NW 32 46 17 25 1014.7 1014.6 0.0
26/03:00pm 17.9 10.1 1.4 33 7.4 NW 32 50 17 27 1015.0 1014.9 0.0
26/02:30pm 18.4 10.9 1.4 32 7.6 NW 30 54 16 29 1015.5 1015.4 0.0
26/02:09pm 17.0 10.0 2.2 37 6.7 NW 28 46 15 25 1015.7 1015.6 0.0
26/02:00pm 16.1 9.1 2.2 39 6.2 NW 28 43 15 23 1016.0 1015.9 0.0
26/01:30pm 17.4 11.0 3.3 39 6.5 WNW 26 44 14 24 1016.1 1016.0 0.0
26/01:00pm 16.1 9.4 3.5 43 5.8 NW 28 43 15 23 1016.4 1016.3 0.0
26/12:45pm 15.8 9.0 3.3 43 5.7 NW 28 50 15 27 1016.7 1016.6 0.0
26/12:30pm 15.6 9.3 4.0 46 5.4 NW 26 39 14 21 1016.9 1016.8 0.0
26/12:00pm 15.0 8.6 5.2 52 4.6 NW 28 43 15 23 1017.1 1017.0 0.0
26/11:30am 14.1 9.1 4.7 53 4.4 WNW 20 39 11 21 1017.3 1017.2 0.0
26/11:00am 14.5 9.6 5.0 53 4.4 WNW 20 32 11 17 1017.2 1017.1 0.0
26/10:30am 13.7 7.7 5.1 56 4.0 WNW 26 43 14 23 1017.0 1016.9 0.0
26/10:00am 13.9 9.9 6.7 62 3.5 WNW 17 33 9 18 1016.9 1016.8 0.0
26/09:30am 12.6 7.9 6.2 65 3.0 WNW 20 39 11 21 1016.9 1016.8 0.0
26/09:00am 12.0 6.9 5.9 66 2.8 WNW 22 33 12 18 1016.7 1016.6 0.6
26/08:30am 11.7 7.3 6.4 70 2.5 WNW 19 32 10 17 1016.5 1016.4 0.6
26/08:00am 11.1 6.5 6.5 73 2.2 NW 20 33 11 18 1016.2 1016.1 0.6
26/07:30am 10.8 6.2 6.4 74 2.1 WNW 20 28 11 15 1016.0 1015.9 0.6
26/07:00am 10.8 6.4 6.6 75 2.0 WNW 19 33 10 18 1015.5 1015.4 0.6
26/06:30am 10.8 7.9 6.7 76 1.9 NW 11 20 6 11 1015.3 1015.2 0.6
26/06:00am 10.8 7.7 7.1 78 1.8 NW 13 20 7 11 1015.1 1015.0 0.6
26/05:30am 10.4 8.0 7.1 80 1.6 NW 9 13 5 7 1015.0 1014.9 0.6
26/05:00am 9.9 7.6 7.3 84 1.2 NW 9 13 5 7 1014.8 1014.7 0.6
26/04:30am 9.8 8.0 7.2 84 1.2 N 6 11 3 6 1014.8 1014.7 0.6
26/04:00am 10.7 6.6 6.3 74 2.1 WNW 17 28 9 15 1014.7 1014.6 0.0
26/03:30am 12.1 9.1 5.9 66 2.9 NW 11 20 6 11 1014.5 1014.4 0.0
26/03:00am 12.3 8.5 5.9 65 3.0 WNW 15 22 8 12 1014.6 1014.5 0.0
26/02:30am 12.6 9.3 6.2 65 3.0 W 13 22 7 12 1014.8 1014.7 0.0
26/02:00am 12.7 7.9 7.2 69 2.7 W 22 35 12 19 1014.9 1014.8 0.0
26/01:30am 12.7 8.8 8.8 77 2.0 W 19 30 10 16 1014.4 1014.3 0.0
26/01:04am 13.2 10.4 11.3 88 1.0 NNW 17 39 9 21 1013.8 1013.7 0.0
26/01:00am 11.3 9.5 9.6 89 0.9 N 9 19 5 10 1013.7 1013.6 0.0
26/12:30am 10.2 8.7 8.5 89 0.8 N 6 7 3 4 1013.4 1013.4 0.0
26/12:00am 9.2 7.8 7.2 87 0.9 N 4 7 2 4 1013.8 1013.7 0.0
 
Date/Time
EDT
Tmp

°C
App
Tmp
°C
Dew
Point
°C
Rel
Hum
%
Delta-T

°C
Wind Press
QNH
hPa
Press
MSL
hPa
Rain
since
9 am
mm
Dir
 
Spd
km/h
Gust
km/h
Spd
kts
Gust
kts
25/11:30pm 10.0 9.1 7.9 87 1.0 N 2 4 1 2 1013.9 1013.8 0.0
25/11:00pm 11.7 10.5 9.6 87 1.1 N 6 7 3 4 1013.9 1013.8 0.0
25/10:30pm 11.3 9.7 8.9 85 1.2 NNW 7 9 4 5 1014.2 1014.1 0.0
25/10:00pm 11.5 10.4 8.5 82 1.5 SSE 4 6 2 3 1014.2 1014.1 0.0
25/09:30pm 12.2 12.0 8.9 80 1.6 CALM 0 0 0 0 1014.1 1014.0 0.0
25/09:00pm 12.7 12.0 8.6 76 2.0 SSE 2 2 1 1 1014.0 1013.9 0.0
25/08:30pm 14.0 13.1 9.2 73 2.4 SSE 4 7 2 4 1013.8 1013.7 0.0
25/08:00pm 14.7 13.4 9.3 70 2.8 SSE 6 6 3 3 1013.7 1013.6 0.0
25/07:30pm 15.4 14.1 9.3 67 3.1 SE 6 9 3 5 1013.6 1013.5 0.0
25/07:00pm 16.0 14.7 9.2 64 3.5 SSE 6 9 3 5 1013.4 1013.4 0.0
25/06:30pm 17.2 15.7 8.4 56 4.5 SSW 6 9 3 5 1013.2 1013.2 0.0
25/06:00pm 17.6 15.9 8.5 55 4.7 S 7 13 4 7 1013.1 1013.1 0.0
25/05:30pm 17.8 16.3 8.4 54 4.8 SSE 6 9 3 5 1013.2 1013.2 0.0
25/05:00pm 17.4 15.6 9.3 59 4.2 SSE 9 15 5 8 1013.3 1013.3 0.0
25/04:30pm 16.4 13.4 9.1 62 3.8 SSW 15 22 8 12 1013.7 1013.6 0.0
25/04:00pm 17.2 13.4 8.9 58 4.3 SSW 19 26 10 14 1014.2 1014.1 0.0
25/03:30pm 18.8 17.2 8.7 52 5.3 N 7 13 4 7 1014.3 1014.2 0.0
25/03:00pm 19.6 18.0 8.9 50 5.6 ENE 7 22 4 12 1014.2 1014.1 0.0
25/02:30pm 18.2 16.4 7.9 51 5.3 NE 7 11 4 6 1015.0 1014.9 0.0
25/02:00pm 18.1 16.5 8.9 55 4.8 NE 7 11 4 6 1015.3 1015.2 0.0
25/01:30pm 17.1 15.3 8.0 55 4.6 NNE 7 17 4 9 1016.0 1015.9 0.0
25/01:00pm 17.5 15.1 8.6 56 4.6 NE 11 20 6 11 1016.7 1016.6 0.0
25/12:30pm 16.8 14.8 8.5 58 4.2 NE 9 17 5 9 1017.2 1017.1 0.0
25/12:00pm 16.2 14.0 7.9 58 4.2 NE 9 15 5 8 1017.4 1017.3 0.0
25/11:30am 17.1 15.4 8.5 57 4.4 NE 7 13 4 7 1017.6 1017.5 0.0
25/11:00am 16.0 14.3 7.5 57 4.2 NE 6 9 3 5 1018.1 1018.0 0.0
25/10:30am 16.0 14.3 7.5 57 4.2 NNW 6 7 3 4 1018.6 1018.5 0.0
25/10:00am 15.2 13.9 7.7 61 3.7 N 4 6 2 3 1018.4 1018.3 0.0
25/09:30am 14.3 13.0 7.8 65 3.2 N 4 7 2 4 1018.2 1018.1 0.0
25/09:00am 13.7 12.5 8.1 69 2.8 N 4 6 2 3 1018.6 1018.5 0.2
25/08:30am 13.0 11.8 7.9 71 2.5 NNE 4 6 2 3 1018.4 1018.3 0.2
25/08:00am 12.5 11.2 7.8 73 2.3 W 4 6 2 3 1018.4 1018.3 0.2
25/07:30am 12.3 11.7 7.4 72 2.4 CALM 0 4 0 2 1018.2 1018.1 0.2
25/07:00am 12.5 11.9 7.2 70 2.6 CALM 0 0 0 0 1018.0 1017.9 0.2
25/06:30am 12.9 11.5 7.1 68 2.8 W 4 6 2 3 1018.1 1018.0 0.2
25/06:00am 13.0 11.6 7.2 68 2.8 SSW 4 4 2 2 1018.1 1018.0 0.2
25/05:30am 13.3 11.3 7.3 67 2.9 SW 7 13 4 7 1018.1 1018.0 0.2
25/05:00am 12.9 11.8 6.7 66 3.0 SW 2 4 1 2 1018.1 1018.0 0.2
25/04:30am 13.5 11.6 6.8 64 3.2 SW 6 9 3 5 1018.1 1018.0 0.2

Latest Capital City Observations: Canberra | Sydney | Melbourne | Brisbane | Adelaide | Perth | Hobart | Darwin

Other Formats:

Comma delimited format used in spreadsheet applications
http://www.bom.gov.au/fwo/IDV60901/IDV60901.94898.axf

JavaScript Object Notation format (JSON) in row-major order
http://www.bom.gov.au/fwo/IDV60901/IDV60901.94898.json